Mc Keesport, Pennsylvania
Current Conditions -  °F | °C
As of 6:23 PM on Wednesday 26 Nov 2014 (Local Time) from KAGC Reporting Station
Haze Haze  
Wind Chill: 32°   Ceiling: 300
Heat Index: 32°   Visibility: 2.5mi
Dew Point: 29°   Wind: 0mph
Humidity: 88%   Direction: NA
Pressure: 29.99"   Gusts: NA
Location:  40.4344°N, 80.0248°W
Report Text: KAGC 262323Z 00000KT 2 1/2SM BR OVC003 00/M02 A2999 RMK AO2 UPE00 P0000 I1000 T00001017
Loading
Personal Weather Stations






























Interactive Weather Map New forecast layout! Learn more

10-Day Weather Forecast

Advertisements
Track Severe Weather on mobile